MMTP/TAP METAR and TAF weather

Enter ICAO airport designator
Station Type Date Time Source
MMTP METAR 2021/06/22 22:51 UTC NOAA

MMTP 222251Z 05005KT 7SM FEW030 BKN100 BKN200 24/24 A2987 RMK 8/463 HZY CB DSNT NE


Station Type Date Time Source
MMTP Decoded METAR 2021/06/22 22:51 UTC NOAA

Tapachula , Mexico (MMTP) 14-47N 092-23W
Jun 22, 2021 - 06:51 PM EDT / 2021.06.22 2251 UTC
Wind: from the NE (050 degrees) at 6 MPH (5 KT):0
Visibility: 7 mile(s):0
Sky conditions: mostly cloudy
Weather: Cumulonimbus clouds observed
Temperature: 75 F (24 C)
Dew Point: 75 F (24 C)
Relative Humidity: 100%
Pressure (altimeter): 29.87 in. Hg (1011 hPa)
ob: MMTP 222251Z 05005KT 7SM FEW030 BKN100 BKN200 24/24 A2987 RMK 8/463 HZY CB DSNT NE
cycle: 23

Station Type Date Time Source
MMTP TAF 2021/06/22 22:16 UTC NOAA

TAF
AMD MMTP 222209Z 2222/2324 08010G20KT 1/2SM RA BKN015CB BKN100 BKN200
FM222300 13010KT 5SM RA HZ BKN020CB OVC100
TEMPO 2300/2304 3SM TSRA
FM230400 13005KT 5SM -RA BKN020 OVC080
TEMPO 2310/2314 4SM TSRA BKN020CB
FM231400 13010KT 5SM HZ SCT020 BKN040 BKN090
TEMPO 2320/2324 5SM TSRA OVC020CB

Example: see airport list